sensor_id;sensor_type;location;lat;lon;timestamp;temperature;humidity
81307;DHT22;70775;50.846;3.224;2024-03-23T00:53:42;8.40;99.90
81307;DHT22;70775;50.846;3.224;2024-03-23T00:56:08;8.50;99.90
81307;DHT22;70775;50.846;3.224;2024-03-23T00:58:34;8.60;99.90
81307;DHT22;70775;50.846;3.224;2024-03-23T01:01:00;8.60;99.90
81307;DHT22;70775;50.846;3.224;2024-03-23T01:03:26;8.60;99.90
81307;DHT22;70775;50.846;3.224;2024-03-23T01:05:51;8.60;99.90
81307;DHT22;70775;50.846;3.224;2024-03-23T01:08:19;8.50;99.90
81307;DHT22;70775;50.846;3.224;2024-03-23T01:10:57;8.50;99.90
81307;DHT22;70775;50.846;3.224;2024-03-23T01:13:23;8.60;99.90
81307;DHT22;70775;50.846;3.224;2024-03-23T01:15:50;8.60;99.90
81307;DHT22;70775;50.846;3.224;2024-03-23T01:18:17;8.60;99.90
81307;DHT22;70775;50.846;3.224;2024-03-23T01:20:43;8.60;99.90
81307;DHT22;70775;50.846;3.224;2024-03-23T01:23:09;8.60;99.90
81307;DHT22;70775;50.846;3.224;2024-03-23T01:25:34;8.60;99.90
81307;DHT22;70775;50.846;3.224;2024-03-23T01:28:00;8.60;99.90
81307;DHT22;70775;50.846;3.224;2024-03-23T01:30:25;8.60;99.90
81307;DHT22;70775;50.846;3.224;2024-03-23T01:32:51;8.60;99.90
81307;DHT22;70775;50.846;3.224;2024-03-23T01:35:16;8.70;99.90
81307;DHT22;70775;50.846;3.224;2024-03-23T01:37:42;8.80;99.90
81307;DHT22;70775;50.846;3.224;2024-03-23T01:40:08;8.80;99.90
81307;DHT22;70775;50.846;3.224;2024-03-23T01:42:34;8.80;99.90
81307;DHT22;70775;50.846;3.224;2024-03-23T01:44:59;8.70;99.90
81307;DHT22;70775;50.846;3.224;2024-03-23T01:47:25;8.70;99.90
81307;DHT22;70775;50.846;3.224;2024-03-23T01:49:51;8.70;99.90
81307;DHT22;70775;50.846;3.224;2024-03-23T01:52:17;8.60;99.90
81307;DHT22;70775;50.846;3.224;2024-03-23T01:54:43;8.60;99.90
81307;DHT22;70775;50.846;3.224;2024-03-23T01:57:10;8.60;99.90
81307;DHT22;70775;50.846;3.224;2024-03-23T01:59:36;8.60;99.90
81307;DHT22;70775;50.846;3.224;2024-03-23T02:02:01;8.60;99.90
81307;DHT22;70775;50.846;3.224;2024-03-23T02:04:27;8.70;99.90
81307;DHT22;70775;50.846;3.224;2024-03-23T02:06:52;8.70;99.90
81307;DHT22;70775;50.846;3.224;2024-03-23T02:09:18;8.70;99.90
81307;DHT22;70775;50.846;3.224;2024-03-23T02:11:44;8.70;99.90
81307;DHT22;70775;50.846;3.224;2024-03-23T02:14:09;8.60;99.90
81307;DHT22;70775;50.846;3.224;2024-03-23T02:16:35;8.60;99.90
81307;DHT22;70775;50.846;3.224;2024-03-23T02:19:01;8.60;99.90
81307;DHT22;70775;50.846;3.224;2024-03-23T02:21:26;8.40;99.90
81307;DHT22;70775;50.846;3.224;2024-03-23T02:23:53;8.30;99.90
81307;DHT22;70775;50.846;3.224;2024-03-23T02:26:18;8.20;99.90
81307;DHT22;70775;50.846;3.224;2024-03-23T02:28:44;8.10;99.90
81307;DHT22;70775;50.846;3.224;2024-03-23T02:31:10;8.10;99.90
81307;DHT22;70775;50.846;3.224;2024-03-23T02:33:35;8.20;99.90
81307;DHT22;70775;50.846;3.224;2024-03-23T02:36:03;8.20;99.90
81307;DHT22;70775;50.846;3.224;2024-03-23T02:38:29;8.10;99.90
81307;DHT22;70775;50.846;3.224;2024-03-23T02:41:00;8.00;99.90
81307;DHT22;70775;50.846;3.224;2024-03-23T02:43:26;8.00;99.90
81307;DHT22;70775;50.846;3.224;2024-03-23T02:45:51;8.10;99.90
81307;DHT22;70775;50.846;3.224;2024-03-23T02:48:17;8.10;99.90
81307;DHT22;70775;50.846;3.224;2024-03-23T02:50:43;8.00;99.90
81307;DHT22;70775;50.846;3.224;2024-03-23T02:53:08;8.00;99.90
81307;DHT22;70775;50.846;3.224;2024-03-23T02:55:34;7.80;99.90
81307;DHT22;70775;50.846;3.224;2024-03-23T02:58:01;7.80;99.90
81307;DHT22;70775;50.846;3.224;2024-03-23T03:00:28;7.60;99.90
81307;DHT22;70775;50.846;3.224;2024-03-23T03:02:53;7.60;99.90
81307;DHT22;70775;50.846;3.224;2024-03-23T03:05:19;7.30;99.90
81307;DHT22;70775;50.846;3.224;2024-03-23T03:07:45;7.30;99.90
81307;DHT22;70775;50.846;3.224;2024-03-23T03:10:10;7.30;99.90
81307;DHT22;70775;50.846;3.224;2024-03-23T03:12:37;7.20;99.90
81307;DHT22;70775;50.846;3.224;2024-03-23T03:15:06;7.10;99.90
81307;DHT22;70775;50.846;3.224;2024-03-23T03:17:32;7.10;99.90
81307;DHT22;70775;50.846;3.224;2024-03-23T03:19:57;7.00;99.90
81307;DHT22;70775;50.846;3.224;2024-03-23T03:22:23;6.90;99.90
81307;DHT22;70775;50.846;3.224;2024-03-23T03:24:49;6.90;99.90
81307;DHT22;70775;50.846;3.224;2024-03-23T03:27:15;6.80;99.90
81307;DHT22;70775;50.846;3.224;2024-03-23T03:29:40;6.90;99.90
81307;DHT22;70775;50.846;3.224;2024-03-23T03:32:06;6.90;99.90
81307;DHT22;70775;50.846;3.224;2024-03-23T03:34:32;6.80;99.90
81307;DHT22;70775;50.846;3.224;2024-03-23T03:36:57;6.80;99.90
81307;DHT22;70775;50.846;3.224;2024-03-23T03:39:24;6.80;99.90
81307;DHT22;70775;50.846;3.224;2024-03-23T03:41:50;6.80;99.90
81307;DHT22;70775;50.846;3.224;2024-03-23T03:44:16;6.80;99.90
81307;DHT22;70775;50.846;3.224;2024-03-23T03:46:42;6.90;99.90
81307;DHT22;70775;50.846;3.224;2024-03-23T03:49:08;6.90;99.90
81307;DHT22;70775;50.846;3.224;2024-03-23T03:51:34;6.90;99.90
81307;DHT22;70775;50.846;3.224;2024-03-23T03:53:59;7.00;99.90
81307;DHT22;70775;50.846;3.224;2024-03-23T03:56:25;7.10;99.90
81307;DHT22;70775;50.846;3.224;2024-03-23T03:58:51;7.10;99.90
81307;DHT22;70775;50.846;3.224;2024-03-23T04:01:16;7.10;99.90
81307;DHT22;70775;50.846;3.224;2024-03-23T04:03:43;7.00;99.90
81307;DHT22;70775;50.846;3.224;2024-03-23T04:06:15;7.00;99.90
81307;DHT22;70775;50.846;3.224;2024-03-23T04:08:43;7.00;99.90
81307;DHT22;70775;50.846;3.224;2024-03-23T04:11:09;6.90;99.90
81307;DHT22;70775;50.846;3.224;2024-03-23T04:13:34;6.90;99.90
81307;DHT22;70775;50.846;3.224;2024-03-23T04:16:00;6.90;99.90
81307;DHT22;70775;50.846;3.224;2024-03-23T04:18:26;6.80;99.90
81307;DHT22;70775;50.846;3.224;2024-03-23T04:20:51;6.80;99.90
81307;DHT22;70775;50.846;3.224;2024-03-23T04:23:17;6.90;99.90
81307;DHT22;70775;50.846;3.224;2024-03-23T04:25:43;7.00;99.90
81307;DHT22;70775;50.846;3.224;2024-03-23T04:28:09;7.00;99.90
81307;DHT22;70775;50.846;3.224;2024-03-23T04:30:34;7.00;99.90
81307;DHT22;70775;50.846;3.224;2024-03-23T04:33:00;7.00;99.90
81307;DHT22;70775;50.846;3.224;2024-03-23T04:35:26;7.00;99.90
81307;DHT22;70775;50.846;3.224;2024-03-23T04:37:53;7.00;99.90
81307;DHT22;70775;50.846;3.224;2024-03-23T04:40:19;7.00;99.90
81307;DHT22;70775;50.846;3.224;2024-03-23T04:42:44;7.00;99.90
81307;DHT22;70775;50.846;3.224;2024-03-23T04:45:10;6.90;99.90
81307;DHT22;70775;50.846;3.224;2024-03-23T04:47:37;6.80;99.90
81307;DHT22;70775;50.846;3.224;2024-03-23T04:50:04;6.70;99.90
81307;DHT22;70775;50.846;3.224;2024-03-23T04:52:29;6.70;99.90
81307;DHT22;70775;50.846;3.224;2024-03-23T04:54:55;6.60;99.90
81307;DHT22;70775;50.846;3.224;2024-03-23T04:57:21;6.60;99.90
81307;DHT22;70775;50.846;3.224;2024-03-23T04:59:47;6.50;99.90
81307;DHT22;70775;50.846;3.224;2024-03-23T05:02:13;6.40;99.90
81307;DHT22;70775;50.846;3.224;2024-03-23T05:04:39;6.40;99.90
81307;DHT22;70775;50.846;3.224;2024-03-23T05:07:06;6.30;99.90
81307;DHT22;70775;50.846;3.224;2024-03-23T05:09:31;6.20;99.90
81307;DHT22;70775;50.846;3.224;2024-03-23T05:12:01;6.20;99.90
81307;DHT22;70775;50.846;3.224;2024-03-23T05:14:27;6.20;99.90
81307;DHT22;70775;50.846;3.224;2024-03-23T05:16:53;6.30;99.90
81307;DHT22;70775;50.846;3.224;2024-03-23T05:19:19;6.30;99.90
81307;DHT22;70775;50.846;3.224;2024-03-23T05:21:44;6.30;99.90
81307;DHT22;70775;50.846;3.224;2024-03-23T05:24:11;6.40;99.90
81307;DHT22;70775;50.846;3.224;2024-03-23T05:26:38;6.30;99.90
81307;DHT22;70775;50.846;3.224;2024-03-23T05:29:03;6.30;99.90
81307;DHT22;70775;50.846;3.224;2024-03-23T05:31:31;6.30;99.90
81307;DHT22;70775;50.846;3.224;2024-03-23T05:33:57;6.30;99.90
81307;DHT22;70775;50.846;3.224;2024-03-23T05:36:22;6.30;99.90
81307;DHT22;70775;50.846;3.224;2024-03-23T05:38:50;6.30;99.90
81307;DHT22;70775;50.846;3.224;2024-03-23T05:41:15;6.20;99.90
81307;DHT22;70775;50.846;3.224;2024-03-23T05:43:41;6.20;99.90
81307;DHT22;70775;50.846;3.224;2024-03-23T05:46:07;6.10;99.90
81307;DHT22;70775;50.846;3.224;2024-03-23T05:48:34;6.10;99.90
81307;DHT22;70775;50.846;3.224;2024-03-23T05:51:00;6.10;99.90
81307;DHT22;70775;50.846;3.224;2024-03-23T05:53:26;6.10;99.90
81307;DHT22;70775;50.846;3.224;2024-03-23T05:55:59;6.10;99.90
81307;DHT22;70775;50.846;3.224;2024-03-23T05:58:25;6.10;99.90
81307;DHT22;70775;50.846;3.224;2024-03-23T06:01:00;6.20;99.90
81307;DHT22;70775;50.846;3.224;2024-03-23T06:03:27;6.10;99.90
81307;DHT22;70775;50.846;3.224;2024-03-23T06:05:52;6.10;99.90
81307;DHT22;70775;50.846;3.224;2024-03-23T06:08:18;6.10;99.90
81307;DHT22;70775;50.846;3.224;2024-03-23T06:10:45;6.10;99.90
81307;DHT22;70775;50.846;3.224;2024-03-23T06:13:12;6.00;99.90
81307;DHT22;70775;50.846;3.224;2024-03-23T06:15:37;6.00;99.90
81307;DHT22;70775;50.846;3.224;2024-03-23T06:18:04;6.00;99.90
81307;DHT22;70775;50.846;3.224;2024-03-23T06:20:30;6.00;99.90
81307;DHT22;70775;50.846;3.224;2024-03-23T06:22:56;6.00;99.90
81307;DHT22;70775;50.846;3.224;2024-03-23T06:25:21;6.00;99.90
81307;DHT22;70775;50.846;3.224;2024-03-23T06:27:47;6.00;99.90
81307;DHT22;70775;50.846;3.224;2024-03-23T06:30:13;6.00;99.90
81307;DHT22;70775;50.846;3.224;2024-03-23T06:32:38;6.00;99.90
81307;DHT22;70775;50.846;3.224;2024-03-23T06:35:04;6.00;99.90
81307;DHT22;70775;50.846;3.224;2024-03-23T06:37:35;6.00;99.90
81307;DHT22;70775;50.846;3.224;2024-03-23T06:40:00;6.10;99.90
81307;DHT22;70775;50.846;3.224;2024-03-23T06:42:26;6.10;99.90
81307;DHT22;70775;50.846;3.224;2024-03-23T06:44:51;6.20;99.90
81307;DHT22;70775;50.846;3.224;2024-03-23T06:47:17;6.20;99.90
81307;DHT22;70775;50.846;3.224;2024-03-23T06:49:43;6.20;99.90
81307;DHT22;70775;50.846;3.224;2024-03-23T06:52:08;6.20;99.90
81307;DHT22;70775;50.846;3.224;2024-03-23T06:54:34;6.30;99.90
81307;DHT22;70775;50.846;3.224;2024-03-23T06:57:00;6.40;99.90
81307;DHT22;70775;50.846;3.224;2024-03-23T06:59:25;6.40;99.90
81307;DHT22;70775;50.846;3.224;2024-03-23T07:01:51;6.40;99.90
81307;DHT22;70775;50.846;3.224;2024-03-23T07:04:16;6.40;99.90
81307;DHT22;70775;50.846;3.224;2024-03-23T07:06:43;6.40;99.90
81307;DHT22;70775;50.846;3.224;2024-03-23T07:09:10;6.40;99.90
81307;DHT22;70775;50.846;3.224;2024-03-23T07:11:36;6.40;99.90
81307;DHT22;70775;50.846;3.224;2024-03-23T07:14:01;6.50;99.90
81307;DHT22;70775;50.846;3.224;2024-03-23T07:16:28;6.50;99.90
81307;DHT22;70775;50.846;3.224;2024-03-23T07:18:54;6.60;99.90
81307;DHT22;70775;50.846;3.224;2024-03-23T07:21:19;6.60;99.90
81307;DHT22;70775;50.846;3.224;2024-03-23T07:23:45;6.60;99.90
81307;DHT22;70775;50.846;3.224;2024-03-23T07:26:11;6.70;99.90
81307;DHT22;70775;50.846;3.224;2024-03-23T07:28:37;6.80;99.90
81307;DHT22;70775;50.846;3.224;2024-03-23T07:31:05;6.80;99.90
81307;DHT22;70775;50.846;3.224;2024-03-23T07:33:31;6.80;99.90
81307;DHT22;70775;50.846;3.224;2024-03-23T07:35:57;6.90;99.90
81307;DHT22;70775;50.846;3.224;2024-03-23T07:38:23;6.90;99.90
81307;DHT22;70775;50.846;3.224;2024-03-23T07:40:49;7.00;99.90
81307;DHT22;70775;50.846;3.224;2024-03-23T07:43:22;7.10;99.90
81307;DHT22;70775;50.846;3.224;2024-03-23T07:45:53;7.10;99.90
81307;DHT22;70775;50.846;3.224;2024-03-23T07:48:20;7.30;99.90
81307;DHT22;70775;50.846;3.224;2024-03-23T07:50:57;7.30;99.90
81307;DHT22;70775;50.846;3.224;2024-03-23T07:53:22;7.20;99.90
81307;DHT22;70775;50.846;3.224;2024-03-23T07:55:55;7.30;99.90
81307;DHT22;70775;50.846;3.224;2024-03-23T07:58:21;7.20;99.90
81307;DHT22;70775;50.846;3.224;2024-03-23T08:00:47;7.30;99.90
81307;DHT22;70775;50.846;3.224;2024-03-23T08:03:13;7.30;99.90
81307;DHT22;70775;50.846;3.224;2024-03-23T08:05:38;7.40;99.90
81307;DHT22;70775;50.846;3.224;2024-03-23T08:08:04;7.50;99.90
81307;DHT22;70775;50.846;3.224;2024-03-23T08:10:30;7.50;99.90
81307;DHT22;70775;50.846;3.224;2024-03-23T08:12:55;7.40;99.90
81307;DHT22;70775;50.846;3.224;2024-03-23T08:15:21;7.50;99.90
81307;DHT22;70775;50.846;3.224;2024-03-23T08:17:47;7.60;99.90
81307;DHT22;70775;50.846;3.224;2024-03-23T08:20:12;7.60;99.90
81307;DHT22;70775;50.846;3.224;2024-03-23T08:22:38;7.50;99.90
81307;DHT22;70775;50.846;3.224;2024-03-23T08:25:04;7.60;99.90
81307;DHT22;70775;50.846;3.224;2024-03-23T08:27:30;7.70;99.90
81307;DHT22;70775;50.846;3.224;2024-03-23T08:29:56;7.70;99.90
81307;DHT22;70775;50.846;3.224;2024-03-23T08:32:21;7.80;99.90
81307;DHT22;70775;50.846;3.224;2024-03-23T08:34:47;8.00;99.90
81307;DHT22;70775;50.846;3.224;2024-03-23T08:37:12;8.10;99.90
81307;DHT22;70775;50.846;3.224;2024-03-23T08:39:38;8.20;99.90
81307;DHT22;70775;50.846;3.224;2024-03-23T08:42:04;8.20;99.90
81307;DHT22;70775;50.846;3.224;2024-03-23T08:44:29;8.30;99.90
81307;DHT22;70775;50.846;3.224;2024-03-23T08:46:58;8.10;99.90
81307;DHT22;70775;50.846;3.224;2024-03-23T08:49:24;8.20;99.90
81307;DHT22;70775;50.846;3.224;2024-03-23T08:51:50;8.30;99.90
81307;DHT22;70775;50.846;3.224;2024-03-23T08:54:15;8.20;99.90
81307;DHT22;70775;50.846;3.224;2024-03-23T08:56:41;8.30;99.90
81307;DHT22;70775;50.846;3.224;2024-03-23T08:59:06;8.50;99.90
81307;DHT22;70775;50.846;3.224;2024-03-23T09:01:32;8.50;99.90
81307;DHT22;70775;50.846;3.224;2024-03-23T09:03:58;8.40;99.90
81307;DHT22;70775;50.846;3.224;2024-03-23T09:06:23;8.50;99.90
81307;DHT22;70775;50.846;3.224;2024-03-23T09:08:49;8.40;99.90
81307;DHT22;70775;50.846;3.224;2024-03-23T09:11:14;8.50;99.90
81307;DHT22;70775;50.846;3.224;2024-03-23T09:13:40;8.40;99.90
81307;DHT22;70775;50.846;3.224;2024-03-23T09:16:07;8.50;99.90
81307;DHT22;70775;50.846;3.224;2024-03-23T09:18:35;8.60;99.90
81307;DHT22;70775;50.846;3.224;2024-03-23T09:21:02;8.60;99.90
81307;DHT22;70775;50.846;3.224;2024-03-23T09:23:28;8.60;99.90
81307;DHT22;70775;50.846;3.224;2024-03-23T09:25:53;8.60;99.90
81307;DHT22;70775;50.846;3.224;2024-03-23T09:28:19;8.80;99.90
81307;DHT22;70775;50.846;3.224;2024-03-23T09:30:45;9.10;99.90
81307;DHT22;70775;50.846;3.224;2024-03-23T09:33:11;9.00;99.90
81307;DHT22;70775;50.846;3.224;2024-03-23T09:35:41;8.80;99.90
81307;DHT22;70775;50.846;3.224;2024-03-23T09:38:07;8.70;99.90
81307;DHT22;70775;50.846;3.224;2024-03-23T09:40:33;8.60;99.90
81307;DHT22;70775;50.846;3.224;2024-03-23T09:42:59;8.60;99.90
81307;DHT22;70775;50.846;3.224;2024-03-23T09:45:28;8.60;99.90
81307;DHT22;70775;50.846;3.224;2024-03-23T09:47:57;8.60;99.90
81307;DHT22;70775;50.846;3.224;2024-03-23T09:50:23;8.60;99.90
81307;DHT22;70775;50.846;3.224;2024-03-23T09:52:49;8.90;99.90
81307;DHT22;70775;50.846;3.224;2024-03-23T09:55:15;9.10;99.90
81307;DHT22;70775;50.846;3.224;2024-03-23T09:57:41;9.20;99.90
81307;DHT22;70775;50.846;3.224;2024-03-23T10:00:07;9.20;99.90
81307;DHT22;70775;50.846;3.224;2024-03-23T10:02:34;9.10;98.70
81307;DHT22;70775;50.846;3.224;2024-03-23T10:05:00;9.00;99.90
81307;DHT22;70775;50.846;3.224;2024-03-23T10:07:26;9.00;99.90
81307;DHT22;70775;50.846;3.224;2024-03-23T10:09:54;9.10;99.90
81307;DHT22;70775;50.846;3.224;2024-03-23T10:12:20;8.90;99.90
81307;DHT22;70775;50.846;3.224;2024-03-23T10:14:46;8.80;99.90
81307;DHT22;70775;50.846;3.224;2024-03-23T10:17:16;8.80;99.90
81307;DHT22;70775;50.846;3.224;2024-03-23T10:19:49;8.70;99.90
81307;DHT22;70775;50.846;3.224;2024-03-23T10:24:45;8.80;99.90
81307;DHT22;70775;50.846;3.224;2024-03-23T10:27:16;8.80;99.90
81307;DHT22;70775;50.846;3.224;2024-03-23T10:29:43;8.80;99.90
81307;DHT22;70775;50.846;3.224;2024-03-23T10:32:13;8.80;99.90
81307;DHT22;70775;50.846;3.224;2024-03-23T10:34:39;8.90;99.90
81307;DHT22;70775;50.846;3.224;2024-03-23T10:37:06;8.90;99.30
81307;DHT22;70775;50.846;3.224;2024-03-23T10:39:39;9.20;99.90
81307;DHT22;70775;50.846;3.224;2024-03-23T10:42:06;9.50;99.90
81307;DHT22;70775;50.846;3.224;2024-03-23T10:44:33;9.60;98.70
81307;DHT22;70775;50.846;3.224;2024-03-23T10:47:00;9.90;97.20
81307;DHT22;70775;50.846;3.224;2024-03-23T10:49:33;9.90;98.00
81307;DHT22;70775;50.846;3.224;2024-03-23T10:52:00;10.10;98.00
81307;DHT22;70775;50.846;3.224;2024-03-23T10:54:26;10.10;94.30
81307;DHT22;70775;50.846;3.224;2024-03-23T10:59:24;9.60;95.90
81307;DHT22;70775;50.846;3.224;2024-03-23T11:01:55;9.60;97.20
81307;DHT22;70775;50.846;3.224;2024-03-23T11:04:34;9.50;96.20
81307;DHT22;70775;50.846;3.224;2024-03-23T11:07:01;9.70;95.90
81307;DHT22;70775;50.846;3.224;2024-03-23T11:09:47;9.80;96.50
81307;DHT22;70775;50.846;3.224;2024-03-23T11:14:54;9.90;96.70
81307;DHT22;70775;50.846;3.224;2024-03-23T11:17:21;10.00;96.40
81307;DHT22;70775;50.846;3.224;2024-03-23T11:20:04;10.20;92.80
81307;DHT22;70775;50.846;3.224;2024-03-23T11:22:48;10.20;93.80
81307;DHT22;70775;50.846;3.224;2024-03-23T11:27:48;9.70;96.30
81307;DHT22;70775;50.846;3.224;2024-03-23T11:30:22;9.60;96.00
81307;DHT22;70775;50.846;3.224;2024-03-23T11:32:49;9.70;96.90
81307;DHT22;70775;50.846;3.224;2024-03-23T11:35:26;9.90;97.70
81307;DHT22;70775;50.846;3.224;2024-03-23T11:40:27;10.00;97.40
81307;DHT22;70775;50.846;3.224;2024-03-23T11:43:00;9.70;98.30
81307;DHT22;70775;50.846;3.224;2024-03-23T11:45:26;9.60;97.40
81307;DHT22;70775;50.846;3.224;2024-03-23T11:48:11;9.80;97.40
81307;DHT22;70775;50.846;3.224;2024-03-23T11:50:43;10.20;95.60
81307;DHT22;70775;50.846;3.224;2024-03-23T11:55:46;10.70;95.70
81307;DHT22;70775;50.846;3.224;2024-03-23T11:58:12;11.00;89.40
81307;DHT22;70775;50.846;3.224;2024-03-23T12:00:38;10.70;91.90
81307;DHT22;70775;50.846;3.224;2024-03-23T12:03:05;10.50;93.20
81307;DHT22;70775;50.846;3.224;2024-03-23T12:05:32;10.20;93.80
81307;DHT22;70775;50.846;3.224;2024-03-23T12:10:44;9.70;96.50
81307;DHT22;70775;50.846;3.224;2024-03-23T12:13:11;9.60;97.20
81307;DHT22;70775;50.846;3.224;2024-03-23T12:15:36;9.60;95.90
81307;DHT22;70775;50.846;3.224;2024-03-23T12:18:09;9.30;99.90
81307;DHT22;70775;50.846;3.224;2024-03-23T12:20:36;9.10;99.90
81307;DHT22;70775;50.846;3.224;2024-03-23T12:23:07;9.10;98.20
81307;DHT22;70775;50.846;3.224;2024-03-23T12:25:34;9.00;99.90
81307;DHT22;70775;50.846;3.224;2024-03-23T12:27:59;9.00;99.90
81307;DHT22;70775;50.846;3.224;2024-03-23T12:30:25;8.90;99.90
81307;DHT22;70775;50.846;3.224;2024-03-23T12:32:51;8.90;99.90
81307;DHT22;70775;50.846;3.224;2024-03-23T12:35:16;9.10;99.90
81307;DHT22;70775;50.846;3.224;2024-03-23T12:37:43;9.30;99.90
81307;DHT22;70775;50.846;3.224;2024-03-23T12:40:09;9.30;99.90
81307;DHT22;70775;50.846;3.224;2024-03-23T12:42:35;9.20;99.90
81307;DHT22;70775;50.846;3.224;2024-03-23T12:45:01;9.20;99.90
81307;DHT22;70775;50.846;3.224;2024-03-23T12:47:26;9.20;99.90
81307;DHT22;70775;50.846;3.224;2024-03-23T12:49:52;9.30;99.90
81307;DHT22;70775;50.846;3.224;2024-03-23T12:52:18;9.30;99.90
81307;DHT22;70775;50.846;3.224;2024-03-23T12:54:47;9.50;99.90
81307;DHT22;70775;50.846;3.224;2024-03-23T12:57:12;9.90;99.10
81307;DHT22;70775;50.846;3.224;2024-03-23T12:59:38;10.30;98.90
81307;DHT22;70775;50.846;3.224;2024-03-23T13:02:03;10.50;96.80
81307;DHT22;70775;50.846;3.224;2024-03-23T13:04:29;10.70;94.10
81307;DHT22;70775;50.846;3.224;2024-03-23T13:06:55;10.80;94.90
81307;DHT22;70775;50.846;3.224;2024-03-23T13:09:20;10.90;93.10
81307;DHT22;70775;50.846;3.224;2024-03-23T13:11:46;11.00;94.10
81307;DHT22;70775;50.846;3.224;2024-03-23T13:14:12;11.30;91.70
81307;DHT22;70775;50.846;3.224;2024-03-23T13:16:40;11.50;92.00
81307;DHT22;70775;50.846;3.224;2024-03-23T13:19:05;11.50;90.10
81307;DHT22;70775;50.846;3.224;2024-03-23T13:21:31;11.20;91.20
81307;DHT22;70775;50.846;3.224;2024-03-23T13:23:57;11.40;94.50
81307;DHT22;70775;50.846;3.224;2024-03-23T13:26:22;11.40;92.30
81307;DHT22;70775;50.846;3.224;2024-03-23T13:28:48;11.50;92.60
81307;DHT22;70775;50.846;3.224;2024-03-23T13:31:14;11.50;88.40
81307;DHT22;70775;50.846;3.224;2024-03-23T13:33:39;11.30;84.60
81307;DHT22;70775;50.846;3.224;2024-03-23T13:36:07;11.20;87.70
81307;DHT22;70775;50.846;3.224;2024-03-23T13:38:33;11.30;86.50
81307;DHT22;70775;50.846;3.224;2024-03-23T13:41:00;11.40;82.80
81307;DHT22;70775;50.846;3.224;2024-03-23T13:43:27;11.50;88.00
81307;DHT22;70775;50.846;3.224;2024-03-23T13:45:57;11.70;90.30
81307;DHT22;70775;50.846;3.224;2024-03-23T13:48:24;11.90;87.50
81307;DHT22;70775;50.846;3.224;2024-03-23T13:51:02;12.00;87.80
81307;DHT22;70775;50.846;3.224;2024-03-23T13:53:29;12.10;81.90
81307;DHT22;70775;50.846;3.224;2024-03-23T13:55:55;12.40;87.00
81307;DHT22;70775;50.846;3.224;2024-03-23T13:58:20;12.50;83.60
81307;DHT22;70775;50.846;3.224;2024-03-23T14:00:46;12.60;80.90
81307;DHT22;70775;50.846;3.224;2024-03-23T14:03:13;12.30;79.80
81307;DHT22;70775;50.846;3.224;2024-03-23T14:05:39;12.30;80.80
81307;DHT22;70775;50.846;3.224;2024-03-23T14:08:08;12.30;79.60
81307;DHT22;70775;50.846;3.224;2024-03-23T14:10:34;12.40;72.70
81307;DHT22;70775;50.846;3.224;2024-03-23T14:13:04;12.00;76.70
81307;DHT22;70775;50.846;3.224;2024-03-23T14:15:30;11.70;83.70
81307;DHT22;70775;50.846;3.224;2024-03-23T14:17:56;12.20;80.50
81307;DHT22;70775;50.846;3.224;2024-03-23T14:20:22;12.10;74.50
81307;DHT22;70775;50.846;3.224;2024-03-23T14:22:51;12.30;73.50
81307;DHT22;70775;50.846;3.224;2024-03-23T14:25:16;12.00;72.00
81307;DHT22;70775;50.846;3.224;2024-03-23T14:27:46;11.80;70.40
81307;DHT22;70775;50.846;3.224;2024-03-23T14:30:12;12.10;73.00
81307;DHT22;70775;50.846;3.224;2024-03-23T14:32:39;12.30;69.50
81307;DHT22;70775;50.846;3.224;2024-03-23T14:35:05;12.40;71.40
81307;DHT22;70775;50.846;3.224;2024-03-23T14:37:32;12.60;72.70
81307;DHT22;70775;50.846;3.224;2024-03-23T14:39:58;12.80;70.00
81307;DHT22;70775;50.846;3.224;2024-03-23T14:42:24;12.70;68.40
81307;DHT22;70775;50.846;3.224;2024-03-23T14:44:51;12.70;68.30
81307;DHT22;70775;50.846;3.224;2024-03-23T14:47:17;13.10;67.60
81307;DHT22;70775;50.846;3.224;2024-03-23T14:49:43;13.10;66.40
81307;DHT22;70775;50.846;3.224;2024-03-23T14:52:15;13.30;69.00
81307;DHT22;70775;50.846;3.224;2024-03-23T14:54:41;13.30;63.70
81307;DHT22;70775;50.846;3.224;2024-03-23T14:57:06;13.10;68.70
81307;DHT22;70775;50.846;3.224;2024-03-23T14:59:34;13.20;65.00
81307;DHT22;70775;50.846;3.224;2024-03-23T15:02:00;13.40;64.10
81307;DHT22;70775;50.846;3.224;2024-03-23T15:04:26;13.50;60.30
81307;DHT22;70775;50.846;3.224;2024-03-23T15:06:51;13.40;59.10
81307;DHT22;70775;50.846;3.224;2024-03-23T15:09:17;13.50;57.30
81307;DHT22;70775;50.846;3.224;2024-03-23T15:11:43;13.20;58.90
81307;DHT22;70775;50.846;3.224;2024-03-23T15:14:09;12.70;59.80
81307;DHT22;70775;50.846;3.224;2024-03-23T15:16:36;12.40;60.00
81307;DHT22;70775;50.846;3.224;2024-03-23T15:19:02;12.30;64.20
81307;DHT22;70775;50.846;3.224;2024-03-23T15:21:27;12.50;64.90
81307;DHT22;70775;50.846;3.224;2024-03-23T15:23:53;12.30;68.10
81307;DHT22;70775;50.846;3.224;2024-03-23T15:26:19;12.10;69.40
81307;DHT22;70775;50.846;3.224;2024-03-23T15:28:48;11.90;71.10
81307;DHT22;70775;50.846;3.224;2024-03-23T15:31:19;12.30;67.30
81307;DHT22;70775;50.846;3.224;2024-03-23T15:33:45;12.80;68.20
81307;DHT22;70775;50.846;3.224;2024-03-23T15:36:10;12.90;63.20
81307;DHT22;70775;50.846;3.224;2024-03-23T15:38:36;12.80;63.90
81307;DHT22;70775;50.846;3.224;2024-03-23T15:41:04;12.30;66.10
81307;DHT22;70775;50.846;3.224;2024-03-23T15:43:30;11.80;69.00
81307;DHT22;70775;50.846;3.224;2024-03-23T15:46:01;11.60;70.40
81307;DHT22;70775;50.846;3.224;2024-03-23T15:48:28;11.90;68.00
81307;DHT22;70775;50.846;3.224;2024-03-23T15:50:54;11.70;68.40
81307;DHT22;70775;50.846;3.224;2024-03-23T15:53:21;11.80;70.50
81307;DHT22;70775;50.846;3.224;2024-03-23T15:56:00;12.10;73.00
81307;DHT22;70775;50.846;3.224;2024-03-23T15:58:27;12.20;75.50
81307;DHT22;70775;50.846;3.224;2024-03-23T16:03:28;11.90;79.30
81307;DHT22;70775;50.846;3.224;2024-03-23T16:05:55;12.30;79.40
81307;DHT22;70775;50.846;3.224;2024-03-23T16:08:21;12.20;80.30
81307;DHT22;70775;50.846;3.224;2024-03-23T16:10:47;12.20;80.00
81307;DHT22;70775;50.846;3.224;2024-03-23T16:13:13;12.10;77.70
81307;DHT22;70775;50.846;3.224;2024-03-23T16:15:39;11.90;77.60
81307;DHT22;70775;50.846;3.224;2024-03-23T16:18:05;12.10;82.50
81307;DHT22;70775;50.846;3.224;2024-03-23T16:20:31;12.10;82.70
81307;DHT22;70775;50.846;3.224;2024-03-23T16:23:02;11.90;83.80
81307;DHT22;70775;50.846;3.224;2024-03-23T16:25:28;11.50;79.70
81307;DHT22;70775;50.846;3.224;2024-03-23T16:27:54;11.30;85.90
81307;DHT22;70775;50.846;3.224;2024-03-23T16:30:20;11.00;89.20
81307;DHT22;70775;50.846;3.224;2024-03-23T16:32:49;10.90;91.20
81307;DHT22;70775;50.846;3.224;2024-03-23T16:35:14;10.90;92.10
81307;DHT22;70775;50.846;3.224;2024-03-23T16:37:41;10.90;92.90
81307;DHT22;70775;50.846;3.224;2024-03-23T16:40:07;10.90;90.50
81307;DHT22;70775;50.846;3.224;2024-03-23T16:42:35;10.80;91.90
81307;DHT22;70775;50.846;3.224;2024-03-23T16:45:00;10.80;92.60
81307;DHT22;70775;50.846;3.224;2024-03-23T16:47:26;10.70;93.40
81307;DHT22;70775;50.846;3.224;2024-03-23T16:49:53;10.60;93.90
81307;DHT22;70775;50.846;3.224;2024-03-23T16:52:18;10.50;92.80